createdAt,value
2018-07-03T00:00:03.492Z,52.89
2018-07-03T00:00:44.639Z,53.17
2018-07-03T00:01:26.615Z,52.79
2018-07-03T00:02:08.411Z,53.08
2018-07-03T00:02:49.561Z,53.27
2018-07-03T00:03:30.626Z,53.27
2018-07-03T00:04:11.834Z,53.36
2018-07-03T00:04:54.608Z,53.36
2018-07-03T00:05:36.616Z,53.36
2018-07-03T00:06:17.769Z,53.36
2018-07-03T00:06:58.866Z,53.66
2018-07-03T00:07:39.933Z,53.56
2018-07-03T00:08:20.980Z,53.46
2018-07-03T00:09:02.185Z,53.46
2018-07-03T00:09:43.349Z,53.46
2018-07-03T00:10:24.387Z,53.94
2018-07-03T00:11:05.371Z,53.17
2018-07-03T00:11:46.389Z,53.17
2018-07-03T00:12:27.448Z,53.36
2018-07-03T00:13:08.465Z,53.85
2018-07-03T00:13:49.550Z,53.66
2018-07-03T00:14:30.662Z,53.46
2018-07-03T00:15:11.657Z,54.23
2018-07-03T00:15:53.434Z,54.52
2018-07-03T00:16:34.497Z,54.13
2018-07-03T00:17:15.506Z,54.52
2018-07-03T00:17:56.671Z,54.33
2018-07-03T00:18:37.655Z,54.52
2018-07-03T00:19:19.599Z,54.71
2018-07-03T00:20:00.602Z,54.61
2018-07-03T00:20:42.439Z,54.23
2018-07-03T00:21:24.941Z,54.42
2018-07-03T00:22:06.100Z,54.71
2018-07-03T00:22:46.967Z,54.42
2018-07-03T00:23:27.991Z,54.71
2018-07-03T00:24:10.055Z,54.61
2018-07-03T00:24:51.197Z,54.8
2018-07-03T00:25:32.082Z,54.52
2018-07-03T00:26:13.145Z,54.61
2018-07-03T00:26:54.947Z,54.42
2018-07-03T00:27:36.032Z,54.58
2018-07-03T00:28:17.028Z,54.52
2018-07-03T00:28:58.928Z,54.8
2018-07-03T00:29:40.017Z,55
2018-07-03T00:30:21.092Z,55.1
2018-07-03T00:31:03.091Z,55.07
2018-07-03T00:31:44.926Z,54.71
2018-07-03T00:32:26.769Z,54.71
2018-07-03T00:33:07.801Z,54.97
2018-07-03T00:33:49.741Z,54.68
2018-07-03T00:34:30.906Z,55.16
2018-07-03T00:35:11.944Z,55.74
2018-07-03T00:35:52.941Z,55.64
2018-07-03T00:36:34.036Z,55.35
2018-07-03T00:37:15.131Z,55.07
2018-07-03T00:37:56.364Z,55.16
2018-07-03T00:38:37.329Z,55.16
2018-07-03T00:39:18.513Z,55.16
2018-07-03T00:40:00.560Z,55.35
2018-07-03T00:40:41.718Z,55.16
2018-07-03T00:41:22.767Z,55.26
2018-07-03T00:42:04.802Z,55.16
2018-07-03T00:42:46.441Z,55.45
2018-07-03T00:43:27.401Z,55.16
2018-07-03T00:44:08.498Z,55.35
2018-07-03T00:44:50.183Z,55.55
2018-07-03T00:45:31.194Z,55.93
2018-07-03T00:46:12.234Z,55.93
2018-07-03T00:46:54.156Z,55.55
2018-07-03T00:47:35.113Z,55.45
2018-07-03T00:48:16.135Z,55.35
2018-07-03T00:48:57.207Z,55.16
2018-07-03T00:49:38.253Z,55.26
2018-07-03T00:50:19.497Z,55.16
2018-07-03T00:51:01.128Z,55.26
2018-07-03T00:51:42.159Z,55.16
2018-07-03T00:52:23.319Z,55.26
2018-07-03T00:53:04.375Z,55.26
2018-07-03T00:53:46.124Z,55.26
2018-07-03T00:54:27.220Z,55.26
2018-07-03T00:55:09.163Z,55.26
2018-07-03T00:55:50.191Z,55.35
2018-07-03T00:56:32.314Z,55.45
2018-07-03T00:57:13.558Z,55.45
2018-07-03T00:57:54.604Z,55.74
2018-07-03T00:58:36.409Z,55.64
2018-07-03T00:59:17.580Z,55.83
2018-07-03T00:59:58.761Z,55.64
2018-07-03T01:00:39.895Z,55.83
2018-07-03T01:01:21.645Z,56.02
2018-07-03T01:02:02.679Z,55.35
2018-07-03T01:02:44.412Z,55.64
2018-07-03T01:03:25.525Z,55.93
2018-07-03T01:04:07.358Z,55.93
2018-07-03T01:04:48.445Z,55.93
2018-07-03T01:05:29.624Z,55.93
2018-07-03T01:06:10.826Z,55.74
2018-07-03T01:06:52.885Z,55.64
2018-07-03T01:07:34.708Z,55.52
2018-07-03T01:08:15.790Z,55.62
2018-07-03T01:08:56.938Z,55.71
2018-07-03T01:09:37.950Z,55.42
2018-07-03T01:10:19.898Z,55.52
2018-07-03T01:11:00.953Z,55.33
2018-07-03T01:11:42.582Z,55.13
2018-07-03T01:12:23.581Z,55.35
2018-07-03T01:13:04.594Z,55.16
2018-07-03T01:13:45.816Z,55.83
2018-07-03T01:14:27.089Z,55.35
2018-07-03T01:15:09.382Z,55.16
2018-07-03T01:15:50.383Z,55.64
2018-07-03T01:16:31.375Z,55.45
2018-07-03T01:17:12.430Z,55.42
2018-07-03T01:17:53.476Z,55.45
2018-07-03T01:18:34.453Z,55.33
2018-07-03T01:19:15.572Z,55.33
2018-07-03T01:19:57.148Z,55.13
2018-07-03T01:20:38.212Z,55.13
2018-07-03T01:21:19.251Z,55.04
2018-07-03T01:22:00.280Z,55.42
2018-07-03T01:22:41.397Z,55.42
2018-07-03T01:23:22.430Z,55.62
2018-07-03T01:24:03.569Z,55.71
2018-07-03T01:24:44.723Z,55.23
2018-07-03T01:25:26.621Z,55.04
2018-07-03T01:26:07.795Z,55.13
2018-07-03T01:26:48.937Z,55.23
2018-07-03T01:27:30.156Z,55.42
2018-07-03T01:28:11.292Z,55.52
2018-07-03T01:28:52.344Z,55.13
2018-07-03T01:29:33.369Z,55.52
2018-07-03T01:30:14.438Z,55.52
2018-07-03T01:30:55.586Z,55.23
2018-07-03T01:31:36.513Z,55.33
2018-07-03T01:32:17.709Z,55.52
2018-07-03T01:32:58.685Z,55.71
2018-07-03T01:33:40.387Z,55.62
2018-07-03T01:34:22.083Z,55.8
2018-07-03T01:35:03.070Z,56.19
2018-07-03T01:35:43.859Z,56.09
2018-07-03T01:36:25.041Z,56.09
2018-07-03T01:37:06.018Z,56.09
2018-07-03T01:37:47.152Z,56.19
2018-07-03T01:38:28.194Z,56.19
2018-07-03T01:39:09.339Z,55.8
2018-07-03T01:39:50.440Z,55.8
2018-07-03T01:40:31.540Z,55.9
2018-07-03T01:41:12.629Z,55.8
2018-07-03T01:41:53.686Z,55.33
2018-07-03T01:42:34.755Z,55.42
2018-07-03T01:43:15.871Z,55.13
2018-07-03T01:43:57.079Z,55.8
2018-07-03T01:44:38.181Z,55.62
2018-07-03T01:45:19.287Z,56.09
2018-07-03T01:46:00.810Z,56.09
2018-07-03T01:46:41.993Z,56
2018-07-03T01:47:22.900Z,55.71
2018-07-03T01:48:04.667Z,55.71
2018-07-03T01:48:46.402Z,56
2018-07-03T01:49:27.419Z,55.71
2018-07-03T01:50:08.534Z,55.8
2018-07-03T01:50:51.169Z,56
2018-07-03T01:51:32.268Z,55.8
2018-07-03T01:52:13.401Z,55.8
2018-07-03T01:52:54.482Z,55.78
2018-07-03T01:53:35.583Z,56.09
2018-07-03T01:54:16.696Z,55.9
2018-07-03T01:54:57.677Z,55.9
2018-07-03T01:55:38.706Z,55.71
2018-07-03T01:56:19.756Z,55.62
2018-07-03T01:57:00.785Z,55.8
2018-07-03T01:57:43.324Z,55.52
2018-07-03T01:58:24.401Z,55.78
2018-07-03T01:59:05.520Z,55.58
2018-07-03T01:59:47.640Z,55.71
2018-07-03T02:00:28.659Z,55.78
2018-07-03T02:01:10.535Z,55.58
2018-07-03T02:01:51.616Z,55.68
2018-07-03T02:02:33.413Z,55.58
2018-07-03T02:03:14.575Z,55.68
2018-07-03T02:03:55.735Z,55.87
2018-07-03T02:04:36.824Z,56.07
2018-07-03T02:05:17.949Z,55.87
2018-07-03T02:05:59.165Z,55.87
2018-07-03T02:06:41.849Z,56.35
2018-07-03T02:07:23.093Z,56.45
2018-07-03T02:08:04.343Z,56.45
2018-07-03T02:08:45.365Z,56.16
2018-07-03T02:09:26.535Z,56.26
2018-07-03T02:10:08.384Z,56.16
2018-07-03T02:10:49.423Z,56.16
2018-07-03T02:11:30.594Z,56.16
2018-07-03T02:12:11.629Z,55.78
2018-07-03T02:12:52.612Z,55.78
2018-07-03T02:13:33.649Z,55.58
2018-07-03T02:14:14.869Z,56.26
2018-07-03T02:14:56.030Z,56.16
2018-07-03T02:15:37.118Z,56.07
2018-07-03T02:16:18.333Z,55.87
2018-07-03T02:16:59.387Z,55.78
2018-07-03T02:17:40.450Z,55.49
2018-07-03T02:18:21.521Z,56.07
2018-07-03T02:19:02.522Z,56.16
2018-07-03T02:19:43.681Z,56.16
2018-07-03T02:20:24.748Z,55.87
2018-07-03T02:21:05.795Z,56.16
2018-07-03T02:21:46.895Z,56.16
2018-07-03T02:22:28.590Z,56.26
2018-07-03T02:23:09.763Z,56.07
2018-07-03T02:23:50.910Z,55.78
2018-07-03T02:24:32.139Z,55.97
2018-07-03T02:25:13.397Z,55.87
2018-07-03T02:25:54.501Z,55.97
2018-07-03T02:26:35.568Z,56.07
2018-07-03T02:27:17.362Z,55.68
2018-07-03T02:27:58.412Z,55.87
2018-07-03T02:28:40.944Z,55.78
2018-07-03T02:29:22.116Z,56.07
2018-07-03T02:30:03.232Z,55.78
2018-07-03T02:30:44.349Z,56.26
2018-07-03T02:31:25.287Z,56.16
2018-07-03T02:32:06.501Z,56.16
2018-07-03T02:32:47.524Z,56.07
2018-07-03T02:33:28.659Z,55.97
2018-07-03T02:34:10.727Z,56.07
2018-07-03T02:34:52.913Z,55.87
2018-07-03T02:35:34.023Z,56.16
2018-07-03T02:36:15.664Z,55.87
2018-07-03T02:36:57.268Z,56.07
2018-07-03T02:37:38.452Z,55.97
2018-07-03T02:38:19.586Z,56.16
2018-07-03T02:39:00.589Z,55.87
2018-07-03T02:39:41.619Z,55.87
2018-07-03T02:40:22.670Z,56.07
2018-07-03T02:41:03.782Z,55.97
2018-07-03T02:41:44.884Z,55.87
2018-07-03T02:42:26.129Z,55.87
2018-07-03T02:43:07.047Z,55.78
2018-07-03T02:43:48.204Z,55.97
2018-07-03T02:44:29.252Z,56.16
2018-07-03T02:45:10.279Z,56.07
2018-07-03T02:45:51.352Z,55.78
2018-07-03T02:46:32.554Z,55.87
2018-07-03T02:47:14.296Z,56.04
2018-07-03T02:47:55.282Z,55.78
2018-07-03T02:48:36.229Z,56.13
2018-07-03T02:49:17.121Z,56.07
2018-07-03T02:49:58.059Z,56.16
2018-07-03T02:50:39.188Z,55.85
2018-07-03T02:51:20.270Z,55.78
2018-07-03T02:52:02.166Z,55.75
2018-07-03T02:52:43.929Z,55.65
2018-07-03T02:53:25.158Z,55.68
2018-07-03T02:54:07.207Z,55.87
2018-07-03T02:54:48.235Z,55.56
2018-07-03T02:55:29.247Z,56.26
2018-07-03T02:56:10.506Z,55.56
2018-07-03T02:56:51.725Z,55.75
2018-07-03T02:57:32.914Z,55.75
2018-07-03T02:58:14.007Z,55.75
2018-07-03T02:58:55.142Z,55.58
2018-07-03T02:59:36.380Z,55.78
2018-07-03T03:00:17.572Z,55.36
2018-07-03T03:00:58.745Z,55.65
2018-07-03T03:01:39.860Z,55.75
2018-07-03T03:02:20.978Z,55.78
2018-07-03T03:03:02.221Z,55.56
2018-07-03T03:03:43.438Z,55.65
2018-07-03T03:04:24.596Z,55.85
2018-07-03T03:05:05.713Z,55.94
2018-07-03T03:05:46.695Z,55.56
2018-07-03T03:06:27.814Z,55.56
2018-07-03T03:07:08.972Z,55.65
2018-07-03T03:07:49.920Z,55.75
2018-07-03T03:08:31.076Z,55.56
2018-07-03T03:09:13.036Z,55.85
2018-07-03T03:09:53.800Z,55.65
2018-07-03T03:10:34.831Z,56.04
2018-07-03T03:11:15.907Z,56.13
2018-07-03T03:11:56.992Z,56.13
2018-07-03T03:12:37.916Z,56.23
2018-07-03T03:13:19.071Z,55.85
2018-07-03T03:14:00.147Z,55.94
2018-07-03T03:14:41.226Z,56.13
2018-07-03T03:15:22.377Z,55.75
2018-07-03T03:16:03.540Z,55.94
2018-07-03T03:16:44.539Z,56.23
2018-07-03T03:17:26.374Z,55.94
2018-07-03T03:18:07.508Z,56.13
2018-07-03T03:18:48.522Z,55.75
2018-07-03T03:19:29.679Z,55.85
2018-07-03T03:20:10.757Z,55.65
2018-07-03T03:20:52.379Z,55.65
2018-07-03T03:21:33.403Z,55.78
2018-07-03T03:22:14.439Z,55.87
2018-07-03T03:22:55.415Z,55.75
2018-07-03T03:23:36.555Z,55.3
2018-07-03T03:24:17.624Z,55.78
2018-07-03T03:24:58.689Z,55.75
2018-07-03T03:25:39.836Z,55.65
2018-07-03T03:26:20.854Z,55.58
2018-07-03T03:27:02.038Z,55.78
2018-07-03T03:27:43.958Z,55.36
2018-07-03T03:28:25.125Z,55.08
2018-07-03T03:29:06.282Z,55.11
2018-07-03T03:29:47.302Z,55.46
2018-07-03T03:30:28.367Z,55.65
2018-07-03T03:31:09.543Z,55.58
2018-07-03T03:31:50.606Z,55.85
2018-07-03T03:32:31.815Z,55.94
2018-07-03T03:33:13.763Z,55.75
2018-07-03T03:33:54.741Z,56.42
2018-07-03T03:34:35.952Z,56.74
2018-07-03T03:35:16.862Z,56.13
2018-07-03T03:35:58.034Z,56.45
2018-07-03T03:36:39.158Z,56.32
2018-07-03T03:37:20.262Z,56.45
2018-07-03T03:38:01.362Z,55.97
2018-07-03T03:38:42.323Z,56.26
2018-07-03T03:39:23.326Z,55.94
2018-07-03T03:40:04.311Z,56.04
2018-07-03T03:40:45.323Z,55.68
2018-07-03T03:41:26.416Z,56.13
2018-07-03T03:42:07.537Z,56.23
2018-07-03T03:42:48.578Z,56.32
2018-07-03T03:43:30.421Z,56.35
2018-07-03T03:44:11.533Z,56.42
2018-07-03T03:44:52.614Z,56.13
2018-07-03T03:45:33.698Z,55.85
2018-07-03T03:46:14.555Z,55.85
2018-07-03T03:46:55.659Z,55.75
2018-07-03T03:47:36.767Z,56.04
2018-07-03T03:48:17.689Z,56.04
2018-07-03T03:48:58.880Z,56.13
2018-07-03T03:49:39.919Z,56.23
2018-07-03T03:50:21.102Z,56.52
2018-07-03T03:51:03.085Z,56.42
2018-07-03T03:51:44.124Z,56.32
2018-07-03T03:52:25.069Z,56.52
2018-07-03T03:53:06.092Z,55.85
2018-07-03T03:53:47.163Z,55.75
2018-07-03T03:54:28.164Z,55.85
2018-07-03T03:55:09.299Z,56.13
2018-07-03T03:55:50.423Z,56.61
2018-07-03T03:56:31.553Z,55.94
2018-07-03T03:57:12.697Z,56.23
2018-07-03T03:57:54.584Z,56.42
2018-07-03T03:58:35.639Z,56.42
2018-07-03T03:59:16.679Z,56.32
2018-07-03T03:59:57.820Z,56.61
2018-07-03T04:00:38.931Z,56.32
2018-07-03T04:01:20.974Z,56.32
2018-07-03T04:02:02.223Z,56.61
2018-07-03T04:02:43.170Z,56.61
2018-07-03T04:03:24.189Z,56.52
2018-07-03T04:04:05.312Z,56.61
2018-07-03T04:04:47.285Z,56.61
2018-07-03T04:05:29.223Z,56.52
2018-07-03T04:06:10.287Z,55.78
2018-07-03T04:06:51.474Z,56.04
2018-07-03T04:07:33.176Z,56.16
2018-07-03T04:08:14.279Z,55.85
2018-07-03T04:08:56.164Z,56.32
2018-07-03T04:09:37.435Z,56.42
2018-07-03T04:10:18.658Z,55.85
2018-07-03T04:10:59.780Z,56.13
2018-07-03T04:11:40.946Z,55.87
2018-07-03T04:12:22.572Z,56.16
2018-07-03T04:13:03.621Z,56.23
2018-07-03T04:13:44.540Z,56.61
2018-07-03T04:14:25.735Z,55.94
2018-07-03T04:15:07.959Z,55.58
2018-07-03T04:15:48.935Z,55.78
2018-07-03T04:16:30.958Z,55.97
2018-07-03T04:17:12.071Z,55.4
2018-07-03T04:17:53.272Z,55.27
2018-07-03T04:18:34.357Z,55.27
2018-07-03T04:19:15.565Z,56.13
2018-07-03T04:19:57.445Z,55.75
2018-07-03T04:20:38.669Z,55.75
2018-07-03T04:21:19.859Z,55.97
2018-07-03T04:22:01.030Z,56.07
2018-07-03T04:22:42.187Z,55.87
2018-07-03T04:23:23.327Z,55.58
2018-07-03T04:24:05.675Z,55.87
2018-07-03T04:24:46.901Z,56.07
2018-07-03T04:25:27.888Z,56.16
2018-07-03T04:26:09.827Z,55.87
2018-07-03T04:26:51.003Z,56.16
2018-07-03T04:27:33.110Z,56.07
2018-07-03T04:28:14.179Z,55.68
2018-07-03T04:28:55.360Z,55.3
2018-07-03T04:29:36.480Z,55.21
2018-07-03T04:30:18.239Z,55.87
2018-07-03T04:30:59.408Z,55.11
2018-07-03T04:31:40.596Z,55.21
2018-07-03T04:32:21.693Z,55.3
2018-07-03T04:33:02.740Z,55.68
2018-07-03T04:33:43.829Z,55.68
2018-07-03T04:34:24.957Z,55.3
2018-07-03T04:35:06.101Z,55.87
2018-07-03T04:35:47.239Z,55.97
2018-07-03T04:36:29.217Z,55.68
2018-07-03T04:37:11.261Z,55.3
2018-07-03T04:37:52.368Z,55.11
2018-07-03T04:38:33.506Z,55.21
2018-07-03T04:39:14.722Z,55.87
2018-07-03T04:39:55.863Z,55.4
2018-07-03T04:40:37.590Z,55.58
2018-07-03T04:41:18.742Z,55.68
2018-07-03T04:41:59.972Z,55.13
2018-07-03T04:42:42.500Z,55.04
2018-07-03T04:43:23.957Z,54.56
2018-07-03T04:44:04.878Z,54.46
2018-07-03T04:44:45.909Z,54.75
2018-07-03T04:45:26.928Z,54.56
2018-07-03T04:46:08.817Z,54.75
2018-07-03T04:46:49.814Z,54.17
2018-07-03T04:47:30.924Z,53.99
2018-07-03T04:48:13.856Z,53.63
2018-07-03T04:48:56.430Z,53.63
2018-07-03T04:49:37.346Z,53.72
2018-07-03T04:50:18.268Z,53.82
2018-07-03T04:50:59.252Z,53.63
2018-07-03T04:51:40.406Z,53.44
2018-07-03T04:52:22.993Z,53.24
2018-07-03T04:53:04.058Z,53.34
2018-07-03T04:53:45.100Z,53.24
2018-07-03T04:54:26.233Z,53.53
2018-07-03T04:55:08.189Z,52.95
2018-07-03T04:55:49.161Z,52.95
2018-07-03T04:56:30.235Z,52.95
2018-07-03T04:57:12.069Z,52.95
2018-07-03T04:57:53.039Z,52.57
2018-07-03T04:58:34.650Z,53.05
2018-07-03T04:59:15.642Z,52.57
2018-07-03T04:59:57.298Z,52.28
2018-07-03T05:00:38.344Z,52.57
2018-07-03T05:01:19.489Z,52.67
2018-07-03T05:02:00.600Z,52.5
2018-07-03T05:02:41.534Z,52.69
2018-07-03T05:03:22.377Z,52.57
2018-07-03T05:04:04.742Z,52.69
2018-07-03T05:04:45.663Z,52.6
2018-07-03T05:05:27.015Z,52.12
2018-07-03T05:06:08.225Z,52.12
2018-07-03T05:06:49.198Z,52.22
2018-07-03T05:07:30.768Z,52.31
2018-07-03T05:08:12.077Z,52.4
2018-07-03T05:08:53.248Z,52.6
2018-07-03T05:09:34.381Z,52.31
2018-07-03T05:10:15.477Z,52.12
2018-07-03T05:10:56.707Z,51.35
2018-07-03T05:11:37.753Z,51.64
2018-07-03T05:12:18.985Z,51.35
2018-07-03T05:12:59.907Z,50.39
2018-07-03T05:13:41.017Z,49.62
2018-07-03T05:14:22.195Z,49.24
2018-07-03T05:15:03.258Z,48.66
2018-07-03T05:15:44.439Z,48.28
2018-07-03T05:16:25.536Z,48.57
2018-07-03T05:17:06.710Z,48.09
2018-07-03T05:17:47.824Z,49.24
2018-07-03T05:18:28.961Z,49.91
2018-07-03T05:19:09.984Z,49.24
2018-07-03T05:19:51.202Z,49.24
2018-07-03T05:20:32.279Z,49.52
2018-07-03T05:21:13.428Z,49.91
2018-07-03T05:21:54.461Z,49.46
2018-07-03T05:22:35.550Z,48.79
2018-07-03T05:23:16.676Z,49.07
2018-07-03T05:23:57.650Z,48.02
2018-07-03T05:24:38.794Z,48.21
2018-07-03T05:25:19.938Z,48.21
2018-07-03T05:26:01.296Z,48.4
2018-07-03T05:26:42.378Z,47.44
2018-07-03T05:27:23.389Z,47.44
2018-07-03T05:28:04.290Z,47.92
2018-07-03T05:28:45.238Z,47.75
2018-07-03T05:29:26.191Z,48.13
2018-07-03T05:30:07.297Z,48.13
2018-07-03T05:30:48.359Z,47.66
2018-07-03T05:31:29.409Z,47.1
2018-07-03T05:32:11.948Z,45.95
2018-07-03T05:32:53.141Z,45.85
2018-07-03T05:33:34.141Z,45.28
2018-07-03T05:34:14.955Z,46.53
2018-07-03T05:34:56.859Z,46.91
2018-07-03T05:35:37.878Z,46.84
2018-07-03T05:36:19.456Z,46.55
2018-07-03T05:37:01.188Z,45.78
2018-07-03T05:37:42.360Z,45.51
2018-07-03T05:38:23.312Z,45.61
2018-07-03T05:39:04.588Z,45.22
2018-07-03T05:39:45.432Z,44.84
2018-07-03T05:40:26.456Z,43.59
2018-07-03T05:41:07.550Z,43.41
2018-07-03T05:41:49.501Z,43.99
2018-07-03T05:42:30.537Z,44.09
2018-07-03T05:43:11.690Z,42.46
2018-07-03T05:43:52.871Z,42.26
2018-07-03T05:44:33.806Z,42.67
2018-07-03T05:45:15.009Z,43.34
2018-07-03T05:45:56.035Z,43.54
2018-07-03T05:46:36.957Z,43.54
2018-07-03T05:47:17.971Z,43.46
2018-07-03T05:47:58.955Z,43.55
2018-07-03T05:48:40.759Z,42.4
2018-07-03T05:49:21.812Z,42.49
2018-07-03T05:50:03.881Z,42.9
2018-07-03T05:50:46.416Z,43.38
2018-07-03T05:51:27.600Z,42.9
2018-07-03T05:52:08.669Z,41.75
2018-07-03T05:52:49.636Z,41.36
2018-07-03T05:53:30.815Z,41.65
2018-07-03T05:54:11.825Z,42.15
2018-07-03T05:54:52.865Z,40.7
2018-07-03T05:55:33.869Z,40.99
2018-07-03T05:56:15.082Z,41.19
2018-07-03T05:56:56.023Z,40.99
2018-07-03T05:57:37.996Z,40.9
2018-07-03T05:58:19.056Z,41.88
2018-07-03T05:59:00.603Z,42.56
2018-07-03T05:59:41.583Z,40.82
2018-07-03T06:00:22.713Z,41.3
2018-07-03T06:01:03.851Z,40.34
2018-07-03T06:01:44.950Z,39.09
2018-07-03T06:02:26.042Z,40.24
2018-07-03T06:03:06.935Z,41.2
2018-07-03T06:03:48.979Z,40.45
2018-07-03T06:04:29.961Z,39.97
2018-07-03T06:05:11.985Z,40.26
2018-07-03T06:05:53.139Z,39.97
2018-07-03T06:06:34.200Z,39.01
2018-07-03T06:07:15.375Z,39.97
2018-07-03T06:07:56.412Z,40.55
2018-07-03T06:08:37.545Z,39.69
2018-07-03T06:09:18.733Z,39.2
2018-07-03T06:09:59.641Z,39.59
2018-07-03T06:10:40.710Z,40.26
2018-07-03T06:11:22.432Z,39.2
2018-07-03T06:12:03.571Z,39.29
2018-07-03T06:12:44.576Z,39.51
2018-07-03T06:13:25.454Z,39.39
2018-07-03T06:14:06.639Z,38.83
2018-07-03T06:14:47.762Z,39.22
2018-07-03T06:15:28.845Z,40.57
2018-07-03T06:16:10.016Z,41.05
2018-07-03T06:16:51.233Z,40.86
2018-07-03T06:17:32.207Z,41.25
2018-07-03T06:18:13.364Z,40.4
2018-07-03T06:18:54.453Z,40.88
2018-07-03T06:19:35.528Z,40.98
2018-07-03T06:20:16.474Z,40.2
2018-07-03T06:20:57.588Z,40.2
2018-07-03T06:21:38.672Z,39.43
2018-07-03T06:22:19.677Z,39.26
2018-07-03T06:23:00.632Z,38.68
2018-07-03T06:23:41.788Z,38.1
2018-07-03T06:24:22.882Z,39.36
2018-07-03T06:25:04.855Z,39.26
2018-07-03T06:25:45.849Z,39.55
2018-07-03T06:26:26.972Z,39.74
2018-07-03T06:27:08.032Z,39.26
2018-07-03T06:27:49.938Z,38.78
2018-07-03T06:28:30.758Z,37.62
2018-07-03T06:29:11.700Z,38.1
2018-07-03T06:29:52.892Z,38.48
2018-07-03T06:30:34.024Z,37.71
2018-07-03T06:31:15.121Z,36.84
2018-07-03T06:31:56.152Z,38.12
2018-07-03T06:32:37.993Z,37.82
2018-07-03T06:33:19.724Z,36.28
2018-07-03T06:34:00.851Z,35.31
2018-07-03T06:34:41.987Z,36.36
2018-07-03T06:35:23.116Z,37.52
2018-07-03T06:36:04.272Z,38.79
2018-07-03T06:36:45.422Z,38.89
2018-07-03T06:37:26.602Z,38.31
2018-07-03T06:38:07.533Z,39.28
2018-07-03T06:38:49.711Z,39.09
2018-07-03T06:39:30.940Z,39.76
2018-07-03T06:40:12.885Z,38.7
2018-07-03T06:40:53.964Z,38.79
2018-07-03T06:41:35.064Z,39.01
2018-07-03T06:42:16.295Z,39.47
2018-07-03T06:42:57.276Z,39.59
2018-07-03T06:43:38.348Z,38.71
2018-07-03T06:44:19.523Z,39.01
2018-07-03T06:45:01.600Z,38.23
2018-07-03T06:45:42.471Z,37.65
2018-07-03T06:46:23.752Z,37.36
2018-07-03T06:47:04.764Z,36.2
2018-07-03T06:47:46.403Z,36.78
2018-07-03T06:48:27.421Z,37.77
2018-07-03T06:49:08.518Z,37.55
2018-07-03T06:49:49.814Z,36.58
2018-07-03T06:50:31.036Z,36.49
2018-07-03T06:51:12.469Z,36.51
2018-07-03T06:51:53.529Z,35.62
2018-07-03T06:52:35.061Z,36.32
2018-07-03T06:53:17.357Z,37.48
2018-07-03T06:53:59.484Z,36.32
2018-07-03T06:54:40.547Z,34.96
2018-07-03T06:55:22.441Z,35.93
2018-07-03T06:56:03.661Z,36.32
2018-07-03T06:56:44.791Z,36.99
2018-07-03T06:57:25.775Z,36.22
2018-07-03T06:58:06.852Z,35.83
2018-07-03T06:58:48.989Z,34.47
2018-07-03T06:59:30.381Z,34.47
2018-07-03T07:00:11.418Z,36.22
2018-07-03T07:00:53.305Z,34.57
2018-07-03T07:01:34.416Z,32.44
2018-07-03T07:02:15.573Z,33.14
2018-07-03T07:02:56.724Z,34.88
2018-07-03T07:03:37.728Z,34.96
2018-07-03T07:04:19.460Z,34.78
2018-07-03T07:05:01.335Z,33.42
2018-07-03T07:05:42.418Z,33.72
2018-07-03T07:06:23.392Z,33.91
2018-07-03T07:07:05.014Z,31.87
2018-07-03T07:07:46.264Z,31.29
2018-07-03T07:08:27.374Z,31.49
2018-07-03T07:09:08.581Z,32.65
2018-07-03T07:09:49.296Z,30.91
2018-07-03T07:10:30.500Z,30.79
2018-07-03T07:11:12.235Z,32.36
2018-07-03T07:11:53.287Z,32.46
2018-07-03T07:12:34.525Z,33.42
2018-07-03T07:13:15.702Z,34.2
2018-07-03T07:13:57.576Z,33.91
2018-07-03T07:14:38.800Z,31.01
2018-07-03T07:15:20.019Z,30.91
2018-07-03T07:16:01.157Z,30.91
2018-07-03T07:16:42.319Z,32.46
2018-07-03T07:17:23.543Z,32.75
2018-07-03T07:18:04.594Z,32.46
2018-07-03T07:18:45.730Z,32.94
2018-07-03T07:19:26.724Z,31.39
2018-07-03T07:20:07.847Z,30.52
2018-07-03T07:20:49.083Z,31.29
2018-07-03T07:21:30.870Z,33.33
2018-07-03T07:22:12.875Z,34.3
2018-07-03T07:22:54.464Z,33.81
2018-07-03T07:23:35.759Z,33.73
2018-07-03T07:24:17.836Z,33.73
2018-07-03T07:24:59.078Z,34.8
2018-07-03T07:25:40.861Z,34.22
2018-07-03T07:26:21.928Z,34.7
2018-07-03T07:27:03.717Z,34.7
2018-07-03T07:27:44.884Z,34.8
2018-07-03T07:28:26.129Z,32.47
2018-07-03T07:29:07.263Z,32.86
2018-07-03T07:29:48.311Z,33.64
2018-07-03T07:30:29.474Z,32.97
2018-07-03T07:31:11.160Z,32.49
2018-07-03T07:31:52.124Z,32.39
2018-07-03T07:32:33.089Z,33.17
2018-07-03T07:33:14.074Z,31.02
2018-07-03T07:33:55.736Z,31.81
2018-07-03T07:34:36.636Z,30.84
2018-07-03T07:35:17.659Z,31.04
2018-07-03T07:35:58.681Z,32.49
2018-07-03T07:36:39.713Z,33.15
2018-07-03T07:37:20.742Z,32.29
2018-07-03T07:38:02.727Z,32.78
2018-07-03T07:38:43.835Z,32.49
2018-07-03T07:39:25.121Z,32.59
2018-07-03T07:40:06.128Z,32.39
2018-07-03T07:40:47.435Z,31.52
2018-07-03T07:41:28.510Z,31.13
2018-07-03T07:42:09.611Z,30.45
2018-07-03T07:42:50.830Z,30.74
2018-07-03T07:43:31.935Z,30.94
2018-07-03T07:44:13.269Z,31.04
2018-07-03T07:44:54.353Z,31.04
2018-07-03T07:45:35.445Z,30.94
2018-07-03T07:46:17.416Z,31.04
2018-07-03T07:46:58.290Z,31.04
2018-07-03T07:47:39.168Z,29.58
2018-07-03T07:48:20.407Z,26.67
2018-07-03T07:49:01.368Z,26.48
2018-07-03T07:49:42.773Z,27.93
2018-07-03T07:50:23.500Z,27.33
2018-07-03T07:51:04.458Z,26.95
2018-07-03T07:51:46.399Z,27.04
2018-07-03T07:52:27.562Z,29.57
2018-07-03T07:53:08.656Z,30.92
2018-07-03T07:53:49.809Z,30.34
2018-07-03T07:54:30.914Z,29.17
2018-07-03T07:55:12.052Z,29.27
2018-07-03T07:55:55.599Z,28.89
2018-07-03T07:56:36.891Z,29.66
2018-07-03T07:57:18.188Z,29.37
2018-07-03T07:57:59.347Z,31.12
2018-07-03T07:58:40.502Z,30.82
2018-07-03T07:59:21.614Z,30.54
2018-07-03T08:00:02.723Z,30.63
2018-07-03T08:00:44.548Z,31.41
2018-07-03T08:01:25.595Z,30.44
2018-07-03T08:02:06.625Z,30.92
2018-07-03T08:02:47.754Z,29.48
2018-07-03T08:03:28.801Z,28.22
2018-07-03T08:04:09.839Z,28.32
2018-07-03T08:04:50.828Z,28.9
2018-07-03T08:05:31.717Z,27.93
2018-07-03T08:06:12.718Z,26.18
2018-07-03T08:06:54.033Z,26.57
2018-07-03T08:07:35.095Z,28.8
2018-07-03T08:08:16.232Z,29.68
2018-07-03T08:08:57.373Z,30.26
2018-07-03T08:09:38.528Z,30.26
2018-07-03T08:10:19.525Z,31.13
2018-07-03T08:11:00.713Z,31.42
2018-07-03T08:11:41.886Z,31.04
2018-07-03T08:12:23.206Z,29.28
2018-07-03T08:13:04.353Z,27.35
2018-07-03T08:13:45.407Z,27.54
2018-07-03T08:14:26.577Z,28.03
2018-07-03T08:15:07.712Z,28.7
2018-07-03T08:15:48.662Z,29
2018-07-03T08:16:29.820Z,27.45
2018-07-03T08:17:10.946Z,25.7
2018-07-03T08:17:52.099Z,26.38
2018-07-03T08:18:34.078Z,28.7
2018-07-03T08:19:15.343Z,30.65
2018-07-03T08:19:56.382Z,30.74
2018-07-03T08:20:37.573Z,30.55
2018-07-03T08:21:18.712Z,31.71
2018-07-03T08:21:59.911Z,31.53
2018-07-03T08:22:41.059Z,31.63
2018-07-03T08:23:21.917Z,30.47
2018-07-03T08:24:03.082Z,30.66
2018-07-03T08:24:44.196Z,30.85
2018-07-03T08:25:25.249Z,30.85
2018-07-03T08:26:06.535Z,30.95
2018-07-03T08:26:47.663Z,30.57
2018-07-03T08:27:28.884Z,29.5
2018-07-03T08:28:10.052Z,29.88
2018-07-03T08:28:51.288Z,30.18
2018-07-03T08:29:33.266Z,30.37
2018-07-03T08:30:15.158Z,31.07
2018-07-03T08:30:56.445Z,29.69
2018-07-03T08:31:37.543Z,28.72
2018-07-03T08:32:18.674Z,28.64
2018-07-03T08:32:59.837Z,28.83
2018-07-03T08:33:40.983Z,28.44
2018-07-03T08:34:22.208Z,28.72
2018-07-03T08:35:03.474Z,29.32
2018-07-03T08:35:44.567Z,29.51
2018-07-03T08:36:26.110Z,29.41
2018-07-03T08:37:08.144Z,29.51
2018-07-03T08:37:49.115Z,28.93
2018-07-03T08:38:30.288Z,27.37
2018-07-03T08:39:12.056Z,27.76
2018-07-03T08:39:53.252Z,25.9
2018-07-03T08:40:34.924Z,25.04
2018-07-03T08:41:16.097Z,24.26
2018-07-03T08:41:57.392Z,25.62
2018-07-03T08:42:38.490Z,26.1
2018-07-03T08:43:19.659Z,27.07
2018-07-03T08:44:00.769Z,27.07
2018-07-03T08:44:41.992Z,27.75
2018-07-03T08:45:23.273Z,28.81
2018-07-03T08:46:04.454Z,29.98
2018-07-03T08:46:45.633Z,30.57
2018-07-03T08:47:27.295Z,29.79
2018-07-03T08:48:08.454Z,30.66
2018-07-03T08:48:49.596Z,30.95
2018-07-03T08:49:30.837Z,30.85
2018-07-03T08:50:11.940Z,29.98
2018-07-03T08:50:54.659Z,29.88
2018-07-03T08:51:36.453Z,29.51
2018-07-03T08:52:18.328Z,29.5
2018-07-03T08:52:59.413Z,29.8